Time;durP1;ratioP1;P1;durP2;ratioP2;P2;SDS_P1;SDS_P2;PMS_P1;PMS_P2;Temp;Humidity;BMP_temperature;BMP_pressure;BME280_temperature;BME280_humidity;BME280_pressure;Samples;Min_cycle;Max_cycle;Signal;HPM_P1;HPM_P2
2024/01/02 00:00:01;;;;;;;15.50;2.83;;;;;;;5.66;100.00;99943.81;5059303;28;20032;-95
2024/01/02 00:02:27;;;;;;;15.77;2.23;;;;;;;5.66;100.00;99935.84;5058529;28;20021;-95
2024/01/02 00:04:52;;;;;;;13.23;1.80;;;;;;;5.59;100.00;99923.53;5059225;28;20045;-95
2024/01/02 00:07:18;;;;;;;16.50;2.20;;;;;;;5.66;100.00;99925.22;5044572;28;20033;-95
2024/01/02 00:09:43;;;;;;;13.65;1.55;;;;;;;5.64;100.00;99906.06;5051763;28;20021;-94
2024/01/02 00:12:09;;;;;;;14.37;1.67;;;;;;;5.69;100.00;99909.56;5054133;28;20056;-95
2024/01/02 00:14:35;;;;;;;15.15;2.03;;;;;;;5.71;100.00;99906.66;5053726;28;20564;-94
2024/01/02 00:17:00;;;;;;;15.87;1.80;;;;;;;5.70;100.00;99889.91;5046224;28;20041;-96
2024/01/02 00:19:25;;;;;;;14.97;1.63;;;;;;;5.70;100.00;99887.25;5038011;28;21922;-96
2024/01/02 00:21:52;;;;;;;9.87;1.70;;;;;;;5.75;100.00;99878.53;5055203;28;20021;-95
2024/01/02 00:24:19;;;;;;;17.50;2.28;;;;;;;5.79;100.00;99860.22;5054032;28;20013;-96
2024/01/02 00:26:44;;;;;;;15.80;1.77;;;;;;;5.74;100.00;99845.03;5053653;28;20056;-95
2024/01/02 00:29:10;;;;;;;13.23;1.80;;;;;;;5.83;100.00;99850.69;5053245;28;20043;-95
2024/01/02 00:31:36;;;;;;;12.37;1.30;;;;;;;5.81;100.00;99848.31;5052584;28;20533;-95
2024/01/02 00:34:01;;;;;;;13.52;1.58;;;;;;;5.84;100.00;99826.50;5053667;28;20068;-95
2024/01/02 00:36:27;;;;;;;12.27;1.63;;;;;;;5.83;100.00;99806.31;5052184;28;20030;-95
2024/01/02 00:38:54;;;;;;;10.63;1.97;;;;;;;5.87;100.00;99803.94;5036670;28;20021;-95
2024/01/02 00:41:19;;;;;;;10.57;1.73;;;;;;;5.85;100.00;99776.81;5036887;28;20035;-96
2024/01/02 00:43:45;;;;;;;10.70;1.50;;;;;;;5.89;100.00;99772.59;5045564;28;20032;-95
2024/01/02 00:46:10;;;;;;;8.67;1.27;;;;;;;5.94;100.00;99755.88;5064023;28;20075;-95
2024/01/02 00:48:36;;;;;;;12.40;1.70;;;;;;;5.90;100.00;99736.97;5063656;28;20480;-95
2024/01/02 00:51:01;;;;;;;6.63;1.00;;;;;;;5.96;100.00;99737.81;5064560;28;20305;-94
2024/01/02 00:53:27;;;;;;;9.98;1.50;;;;;;;5.93;100.00;99712.56;5064678;28;20490;-95
2024/01/02 00:55:53;;;;;;;8.00;1.27;;;;;;;5.94;100.00;99703.50;5056268;28;20029;-95
2024/01/02 00:58:18;;;;;;;6.77;1.10;;;;;;;5.98;100.00;99709.13;5089210;28;20109;-96
2024/01/02 01:00:43;;;;;;;6.97;0.90;;;;;;;6.01;100.00;99703.31;5054354;28;20382;-96
2024/01/02 01:03:09;;;;;;;3.83;0.90;;;;;;;6.01;100.00;99687.38;5056362;28;20025;-96
2024/01/02 01:05:34;;;;;;;8.67;1.00;;;;;;;6.00;100.00;99675.13;5055541;28;20021;-95
2024/01/02 01:07:59;;;;;;;5.90;0.97;;;;;;;6.00;100.00;99678.56;5053887;28;20028;-96
2024/01/02 01:10:25;;;;;;;7.87;1.17;;;;;;;6.00;100.00;99664.50;5055673;28;20116;-95
2024/01/02 01:12:50;;;;;;;5.93;1.02;;;;;;;5.92;100.00;99647.13;5053068;28;20441;-96
2024/01/02 01:15:25;;;;;;;2.80;0.60;;;;;;;6.01;100.00;99642.16;5054726;28;20033;-96
2024/01/02 01:17:50;;;;;;;8.48;0.70;;;;;;;5.97;100.00;99628.53;5062387;28;20033;-95
2024/01/02 01:20:16;;;;;;;4.67;0.87;;;;;;;5.99;100.00;99623.75;5061718;28;20044;-94
2024/01/02 01:22:42;;;;;;;3.83;0.80;;;;;;;6.02;100.00;99628.59;5064482;28;20021;-95
2024/01/02 01:25:07;;;;;;;6.15;0.80;;;;;;;6.02;100.00;99631.25;5072791;28;20051;-95
2024/01/02 01:27:34;;;;;;;5.38;0.68;;;;;;;6.01;100.00;99612.91;5049168;28;20025;-96
2024/01/02 01:29:59;;;;;;;7.97;1.10;;;;;;;6.04;100.00;99601.72;5052290;28;20096;-94
2024/01/02 01:32:24;;;;;;;5.07;0.80;;;;;;;6.03;100.00;99584.16;5063862;28;20290;-96
2024/01/02 01:34:51;;;;;;;5.30;0.70;;;;;;;6.01;100.00;99565.81;5061729;28;20036;-95
2024/01/02 01:37:17;;;;;;;6.85;0.82;;;;;;;6.08;100.00;99552.28;5060175;28;20047;-95
2024/01/02 01:39:42;;;;;;;6.00;0.77;;;;;;;6.05;100.00;99537.66;5062350;28;20052;-95
2024/01/02 01:42:08;;;;;;;4.37;0.60;;;;;;;6.10;100.00;99552.06;5060660;28;20021;-95
2024/01/02 01:44:34;;;;;;;1.75;0.57;;;;;;;6.10;100.00;99544.84;5057645;28;20029;-95
2024/01/02 01:46:59;;;;;;;1.77;0.30;;;;;;;6.11;100.00;99524.41;5055478;28;20032;-95
2024/01/02 01:49:25;;;;;;;5.55;0.70;;;;;;;6.11;100.00;99527.06;5060857;28;20036;-94
2024/01/02 01:51:53;;;;;;;1.80;0.67;;;;;;;6.10;100.00;99509.50;5084218;28;20115;-95
2024/01/02 01:54:19;;;;;;;1.90;0.35;;;;;;;6.10;100.00;99496.19;5060302;28;20503;-96
2024/01/02 01:56:44;;;;;;;3.17;0.60;;;;;;;6.10;100.00;99494.31;5059903;28;20017;-95
2024/01/02 01:59:12;;;;;;;2.07;0.40;;;;;;;6.11;100.00;99479.97;5051022;28;20025;-95
2024/01/02 02:01:38;;;;;;;3.97;0.50;;;;;;;6.10;100.00;99473.06;5041308;28;20036;-95
2024/01/02 02:04:04;;;;;;;1.50;0.40;;;;;;;6.11;100.00;99472.00;5039639;28;20021;-95
2024/01/02 02:06:30;;;;;;;1.77;0.40;;;;;;;6.13;100.00;99456.56;5051042;28;20120;-96
2024/01/02 02:08:55;;;;;;;1.17;0.50;;;;;;;6.13;100.00;99445.94;5057326;28;20028;-95
2024/01/02 02:11:20;;;;;;;2.67;0.50;;;;;;;6.12;100.00;99436.34;5059017;28;20024;-96
2024/01/02 02:13:47;;;;;;;3.33;0.50;;;;;;;6.11;100.00;99426.78;5060536;28;20032;-95
2024/01/02 02:16:15;;;;;;;2.70;0.40;;;;;;;6.14;100.00;99431.56;5062324;28;20052;-95
2024/01/02 02:18:40;;;;;;;1.43;0.33;;;;;;;6.15;100.00;99422.53;5062645;28;20087;-95
2024/01/02 02:21:05;;;;;;;3.87;0.53;;;;;;;6.14;100.00;99410.31;5060770;28;20287;-95
2024/01/02 02:23:31;;;;;;;1.53;0.50;;;;;;;6.11;100.00;99400.19;5060360;28;20086;-96
2024/01/02 02:25:56;;;;;;;2.87;0.40;;;;;;;6.18;100.00;99394.59;5065095;28;20029;-95
2024/01/02 02:28:21;;;;;;;0.40;0.40;;;;;;;6.17;100.00;99383.19;5062198;28;20100;-96
2024/01/02 02:30:47;;;;;;;2.50;0.40;;;;;;;6.15;100.00;99372.00;5060991;28;20032;-96
2024/01/02 02:33:12;;;;;;;0.33;0.20;;;;;;;6.20;100.00;99369.34;5062146;28;20469;-95
2024/01/02 02:35:38;;;;;;;0.70;0.30;;;;;;;6.22;100.00;99369.88;5053015;28;20060;-95
2024/01/02 02:38:03;;;;;;;1.70;0.43;;;;;;;6.25;100.00;99363.25;5056999;28;20021;-95
2024/01/02 02:40:28;;;;;;;0.77;0.30;;;;;;;6.29;100.00;99347.53;5060735;28;20021;-95
2024/01/02 02:42:55;;;;;;;5.40;0.30;;;;;;;6.28;100.00;99333.44;5061650;28;20067;-95
2024/01/02 02:45:20;;;;;;;0.93;0.30;;;;;;;6.29;100.00;99318.28;5060416;28;20024;-95
2024/01/02 02:47:45;;;;;;;0.98;0.40;;;;;;;6.27;100.00;99307.91;5060896;28;20032;-96
2024/01/02 02:50:12;;;;;;;0.80;0.30;;;;;;;6.29;100.00;99307.63;5061360;28;20024;-96
2024/01/02 02:52:38;;;;;;;2.22;0.35;;;;;;;6.32;100.00;99310.56;5062986;28;20017;-95
2024/01/02 02:55:04;;;;;;;1.07;0.40;;;;;;;6.32;100.00;99304.44;5061228;28;20028;-96
2024/01/02 02:57:29;;;;;;;0.95;0.30;;;;;;;6.31;100.00;99292.22;5043970;28;20035;-96
2024/01/02 02:59:55;;;;;;;1.30;0.30;;;;;;;6.32;100.00;99272.53;5059647;28;20029;-96
2024/01/02 03:02:20;;;;;;;1.03;0.40;;;;;;;6.33;100.00;99268.78;5063457;28;20071;-95
2024/01/02 03:04:45;;;;;;;1.43;0.30;;;;;;;6.32;100.00;99262.66;5062615;28;20033;-96
2024/01/02 03:07:12;;;;;;;1.03;0.30;;;;;;;6.35;100.00;99250.69;5062652;28;20029;-94
2024/01/02 03:09:37;;;;;;;0.85;0.30;;;;;;;6.36;100.00;99242.44;5062798;28;20128;-96
2024/01/02 03:12:04;;;;;;;1.25;0.30;;;;;;;6.35;100.00;99218.78;5058826;28;20045;-95
2024/01/02 03:14:29;;;;;;;0.60;0.30;;;;;;;6.40;100.00;99205.44;5060299;28;20056;-95
2024/01/02 03:16:55;;;;;;;1.33;0.23;;;;;;;6.40;100.00;99209.97;5059681;28;20628;-93
2024/01/02 03:19:20;;;;;;;0.97;0.30;;;;;;;6.42;100.00;99191.88;5071417;28;20044;-96
2024/01/02 03:21:45;;;;;;;0.73;0.50;;;;;;;6.42;100.00;99182.03;5064947;28;20024;-96
2024/01/02 03:24:11;;;;;;;0.52;0.30;;;;;;;6.44;100.00;99174.56;5050714;28;20029;-95
2024/01/02 03:26:37;;;;;;;1.33;0.30;;;;;;;6.47;100.00;99174.03;5050583;28;20037;-96
2024/01/02 03:29:03;;;;;;;3.08;0.30;;;;;;;6.47;100.00;99168.72;5056894;28;20061;-96
2024/01/02 03:31:28;;;;;;;0.43;0.30;;;;;;;6.51;100.00;99156.47;5056491;28;20020;-96
2024/01/02 03:33:54;;;;;;;0.80;0.33;;;;;;;6.52;100.00;99162.56;5051796;28;20108;-96
2024/01/02 03:36:20;;;;;;;0.50;0.30;;;;;;;6.55;100.00;99147.94;5036859;28;20109;-95
2024/01/02 03:38:47;;;;;;;0.40;0.30;;;;;;;6.57;100.00;99127.19;5038460;28;20559;-96
2024/01/02 03:41:14;;;;;;;2.30;0.30;;;;;;;6.55;100.00;99134.66;5040605;28;20564;-96
2024/01/02 03:43:40;;;;;;;0.50;0.30;;;;;;;6.61;100.00;99133.53;5046684;28;20045;-95
2024/01/02 03:46:05;;;;;;;0.80;0.40;;;;;;;6.62;100.00;99127.16;5062801;28;20079;-96
2024/01/02 03:48:31;;;;;;;0.77;0.30;;;;;;;6.70;100.00;99131.09;5057089;28;20028;-96
2024/01/02 03:50:56;;;;;;;0.70;0.20;;;;;;;6.71;100.00;99127.38;5054192;28;20064;-96
2024/01/02 03:53:22;;;;;;;0.40;0.30;;;;;;;6.75;100.00;99120.44;5054715;28;20164;-96
2024/01/02 03:55:47;;;;;;;1.20;0.30;;;;;;;6.78;100.00;99128.66;5063371;28;20025;-95
2024/01/02 03:58:13;;;;;;;0.30;0.30;;;;;;;6.81;100.00;99117.47;5059175;28;20017;-95
2024/01/02 04:00:40;;;;;;;1.33;0.20;;;;;;;6.84;100.00;99123.31;5060448;28;20017;-96
2024/01/02 04:03:06;;;;;;;1.35;0.30;;;;;;;6.82;100.00;99100.44;5059683;28;20370;-96
2024/01/02 04:05:32;;;;;;;0.27;0.20;;;;;;;6.90;100.00;99111.59;5060268;28;20017;-96
2024/01/02 04:07:57;;;;;;;0.28;0.28;;;;;;;6.93;100.00;99111.03;5056347;28;20025;-95
2024/01/02 04:10:22;;;;;;;1.17;0.30;;;;;;;6.98;100.00;99103.00;5058303;28;20032;-96
2024/01/02 04:12:48;;;;;;;0.50;0.30;;;;;;;7.00;100.00;99098.19;5050641;28;20063;-94
2024/01/02 04:15:13;;;;;;;0.47;0.30;;;;;;;7.04;100.00;99091.25;5039806;28;20291;-94
2024/01/02 04:17:38;;;;;;;0.40;0.30;;;;;;;7.08;100.00;99084.31;5070472;28;20028;-90
2024/01/02 04:20:04;;;;;;;0.63;0.40;;;;;;;7.08;100.00;99088.81;5070674;28;20503;-91
2024/01/02 04:22:29;;;;;;;0.65;0.30;;;;;;;7.13;100.00;99080.81;5057837;28;20123;-92
2024/01/02 04:24:55;;;;;;;0.67;0.40;;;;;;;7.15;100.00;99065.34;5051823;28;20090;-93
2024/01/02 04:27:20;;;;;;;0.47;0.43;;;;;;;7.18;100.00;99074.63;5056645;28;20115;-92
2024/01/02 04:29:45;;;;;;;0.40;0.40;;;;;;;7.26;100.00;99077.50;5052537;28;20404;-94
2024/01/02 04:32:13;;;;;;;0.40;0.40;;;;;;;7.25;100.00;99067.13;5052894;28;20028;-94
2024/01/02 04:34:41;;;;;;;0.50;0.50;;;;;;;7.29;100.00;99076.16;5052215;28;20553;-94
2024/01/02 04:37:07;;;;;;;0.80;0.50;;;;;;;7.31;100.00;99058.00;5052041;28;20480;-93
2024/01/02 04:39:32;;;;;;;0.77;0.70;;;;;;;7.37;100.00;99062.22;5052149;28;20017;-93
2024/01/02 04:41:58;;;;;;;0.70;0.67;;;;;;;7.40;100.00;99053.69;5051229;28;20024;-92
2024/01/02 04:44:23;;;;;;;0.73;0.63;;;;;;;7.49;100.00;99058.38;5051919;28;20025;-94
2024/01/02 04:46:48;;;;;;;0.50;0.50;;;;;;;7.49;100.00;99058.38;5046129;28;20013;-94
2024/01/02 04:49:14;;;;;;;0.53;0.53;;;;;;;7.53;100.00;99067.41;5060030;28;20020;-93
2024/01/02 04:51:39;;;;;;;1.30;0.70;;;;;;;7.57;100.00;99050.59;5061821;28;20120;-93
2024/01/02 04:54:09;;;;;;;0.45;0.40;;;;;;;7.54;100.00;99039.69;5052690;28;20025;-93
2024/01/02 04:56:34;;;;;;;1.13;0.75;;;;;;;7.64;100.00;99036.13;5052768;28;20029;-94
2024/01/02 04:58:59;;;;;;;0.50;0.50;;;;;;;7.70;100.00;99057.13;5052498;28;20032;-93
2024/01/02 05:01:25;;;;;;;0.60;0.40;;;;;;;7.70;100.00;99046.47;5050792;28;20033;-93
2024/01/02 05:03:51;;;;;;;0.47;0.47;;;;;;;7.74;100.00;99044.06;5053204;28;20022;-94
2024/01/02 05:06:16;;;;;;;0.52;0.30;;;;;;;7.84;100.00;99059.16;5054319;28;20026;-94
2024/01/02 05:08:42;;;;;;;1.13;0.40;;;;;;;7.88;100.00;99054.81;5041158;28;20031;-93
2024/01/02 05:11:14;;;;;;;0.30;0.30;;;;;;;7.91;100.00;99046.25;5056290;28;20020;-92
2024/01/02 05:13:40;;;;;;;0.57;0.50;;;;;;;7.98;100.00;99046.72;5066326;28;20024;-94
2024/01/02 05:16:08;;;;;;;0.67;0.50;;;;;;;8.04;100.00;99063.47;5059110;28;20021;-93
2024/01/02 05:18:33;;;;;;;0.40;0.40;;;;;;;8.06;100.00;99055.97;5052529;28;20049;-93
2024/01/02 05:20:58;;;;;;;0.47;0.47;;;;;;;8.14;100.00;99054.53;5044707;28;20051;-94
2024/01/02 05:23:24;;;;;;;0.43;0.40;;;;;;;8.16;100.00;99065.72;5049542;28;20036;-89
2024/01/02 05:25:49;;;;;;;0.60;0.40;;;;;;;8.25;100.00;99065.91;5049913;28;20163;-89
2024/01/02 05:28:14;;;;;;;0.60;0.50;;;;;;;8.27;100.00;99069.84;5049923;28;20448;-88
2024/01/02 05:30:40;;;;;;;1.67;0.70;;;;;;;8.36;100.00;99066.56;5048558;28;20025;-88
2024/01/02 05:33:05;;;;;;;0.70;0.70;;;;;;;8.39;100.00;99058.78;5051117;28;20064;-87
2024/01/02 05:35:30;;;;;;;0.90;0.70;;;;;;;8.40;100.00;99054.25;5047291;28;20025;-87
2024/01/02 05:37:55;;;;;;;0.50;0.50;;;;;;;8.46;100.00;99058.41;5035886;28;20087;-87
2024/01/02 05:40:21;;;;;;;1.10;1.00;;;;;;;8.51;100.00;99050.38;5051014;28;20085;-87
2024/01/02 05:42:46;;;;;;;1.00;0.90;;;;;;;8.55;100.00;99061.28;5054756;28;20025;-88
2024/01/02 05:45:11;;;;;;;2.67;0.80;;;;;;;8.60;100.00;99063.88;5051203;28;20503;-88
2024/01/02 05:47:37;;;;;;;0.80;0.77;;;;;;;8.60;100.00;99048.66;5049128;28;20033;-87
2024/01/02 05:50:02;;;;;;;1.70;0.80;;;;;;;8.66;100.00;99048.59;5048484;28;20025;-88
2024/01/02 05:52:28;;;;;;;0.90;0.80;;;;;;;8.75;100.00;99070.91;5049600;28;20031;-88
2024/01/02 05:54:53;;;;;;;1.10;1.00;;;;;;;8.79;100.00;99077.25;5049165;28;20379;-88
2024/01/02 05:57:18;;;;;;;1.10;1.00;;;;;;;8.83;100.00;99080.16;5051439;28;20025;-88
2024/01/02 05:59:44;;;;;;;1.23;0.87;;;;;;;8.84;100.00;99079.84;5031093;28;20025;-87
2024/01/02 06:02:09;;;;;;;1.80;0.90;;;;;;;8.93;100.00;99098.69;5052582;28;20033;-88
2024/01/02 06:04:34;;;;;;;0.90;0.70;;;;;;;8.94;100.00;99093.06;5053041;28;20059;-89
2024/01/02 06:07:00;;;;;;;1.53;0.80;;;;;;;8.93;100.00;99091.47;5051312;28;20037;-88
2024/01/02 06:09:25;;;;;;;0.70;0.70;;;;;;;9.00;100.00;99099.13;5050288;28;20033;-88
2024/01/02 06:11:50;;;;;;;1.20;0.70;;;;;;;8.98;100.00;99081.78;5046834;28;20108;-88
2024/01/02 06:14:16;;;;;;;0.90;0.70;;;;;;;8.99;100.00;99099.41;5047163;28;20496;-88
2024/01/02 06:16:41;;;;;;;2.50;0.63;;;;;;;8.99;100.00;99086.84;5048432;28;20029;-88
2024/01/02 06:19:07;;;;;;;0.60;0.60;;;;;;;9.03;100.00;99105.75;5049162;28;20291;-87
2024/01/02 06:21:32;;;;;;;0.70;0.70;;;;;;;9.05;100.00;99114.28;5048850;28;20033;-88
2024/01/02 06:23:57;;;;;;;0.50;0.50;;;;;;;9.16;100.00;99109.59;5049424;28;20033;-88
2024/01/02 06:26:23;;;;;;;1.13;0.40;;;;;;;9.08;100.00;99105.69;5047928;28;20018;-88
2024/01/02 06:28:48;;;;;;;3.90;1.10;;;;;;;9.17;100.00;99119.97;5046454;28;20123;-87
2024/01/02 06:31:14;;;;;;;1.47;0.83;;;;;;;9.16;100.00;99129.06;5050238;28;20025;-88
2024/01/02 06:33:44;;;;;;;0.87;0.77;;;;;;;9.18;100.00;99126.91;5050033;28;20037;-88
2024/01/02 06:36:10;;;;;;;2.07;1.20;;;;;;;9.21;100.00;99133.56;5050796;28;20295;-88
2024/01/02 06:38:35;;;;;;;2.20;1.40;;;;;;;9.26;100.00;99141.50;5052797;28;20033;-92
2024/01/02 06:41:02;;;;;;;3.87;2.00;;;;;;;9.30;100.00;99139.84;5053139;28;20031;-89
2024/01/02 06:43:28;;;;;;;4.00;2.00;;;;;;;9.31;100.00;99135.31;5048003;28;20025;-88
2024/01/02 06:45:53;;;;;;;2.53;1.73;;;;;;;-148.15;100.00;61821.78;5052560;28;20354;-89
2024/01/02 06:48:18;;;;;;;3.50;2.20;;;;;;;-148.15;100.00;61821.78;5052906;28;20039;-88
2024/01/02 06:50:44;;;;;;;4.60;2.60;;;;;;;9.29;100.00;99142.81;5052514;28;20029;-89
2024/01/02 06:53:09;;;;;;;4.40;2.23;;;;;;;9.33;100.00;99138.44;5053023;28;20029;-89
2024/01/02 06:55:34;;;;;;;10.07;3.50;;;;;;;9.35;100.00;99149.66;5052183;28;20370;-88
2024/01/02 06:58:00;;;;;;;6.60;3.07;;;;;;;9.32;100.00;99144.88;5049240;28;20021;-91
2024/01/02 07:00:25;;;;;;;6.43;3.22;;;;;;;9.33;100.00;99141.13;5049045;28;20021;-90
2024/01/02 07:02:51;;;;;;;7.90;4.07;;;;;;;9.39;100.00;99148.81;5052920;28;20040;-90
2024/01/02 07:05:17;;;;;;;9.75;4.03;;;;;;;9.42;100.00;99158.13;5052245;28;20041;-89
2024/01/02 07:07:42;;;;;;;11.50;4.30;;;;;;;-148.15;100.00;61821.78;5051762;28;20035;-89
2024/01/02 07:10:08;;;;;;;12.67;4.60;;;;;;;-148.15;100.00;61821.78;5055640;28;20060;-90
2024/01/02 07:12:33;;;;;;;10.90;4.40;;;;;;;-148.15;100.00;61821.78;5056442;28;20017;-88
2024/01/02 07:14:58;;;;;;;10.00;4.60;;;;;;;9.45;100.00;99172.75;5051484;28;20040;-89
2024/01/02 07:17:24;;;;;;;12.50;5.13;;;;;;;9.45;100.00;99172.75;5052789;28;20054;-90
2024/01/02 07:19:51;;;;;;;11.43;4.70;;;;;;;9.49;100.00;99166.56;5051224;28;20041;-89
2024/01/02 07:22:17;;;;;;;12.15;4.88;;;;;;;9.48;100.00;99164.97;5050985;28;20116;-88
2024/01/02 07:24:43;;;;;;;13.57;5.45;;;;;;;9.49;100.00;99174.59;5049272;28;20074;-90
2024/01/02 07:27:09;;;;;;;16.15;5.15;;;;;;;9.47;100.00;99171.41;5052705;28;20126;-90
2024/01/02 07:29:34;;;;;;;11.47;4.97;;;;;;;9.49;100.00;99190.63;5048227;28;20520;-90
2024/01/02 07:31:59;;;;;;;13.77;5.63;;;;;;;9.59;100.00;99194.22;5049448;28;20029;-89
2024/01/02 07:34:25;;;;;;;15.07;6.10;;;;;;;9.59;100.00;99202.25;5049651;28;20040;-89
2024/01/02 07:36:50;;;;;;;15.10;5.57;;;;;;;9.59;100.00;99195.00;5051618;28;20025;-89
2024/01/02 07:39:16;;;;;;;14.35;5.28;;;;;;;9.58;100.00;99193.44;5051735;28;20109;-88
2024/01/02 07:41:41;;;;;;;15.60;5.83;;;;;;;9.64;100.00;99202.97;5049146;28;20108;-89
2024/01/02 07:44:07;;;;;;;11.93;5.47;;;;;;;9.57;100.00;99209.75;5049148;28;20036;-89
2024/01/02 07:46:34;;;;;;;14.75;5.47;;;;;;;9.62;100.00;99209.69;5047869;28;20025;-89
2024/01/02 07:48:59;;;;;;;18.75;5.68;;;;;;;9.64;100.00;99213.66;5052709;28;20651;-89
2024/01/02 07:51:24;;;;;;;13.20;5.53;;;;;;;9.61;100.00;99211.56;5048491;28;20059;-89
2024/01/02 07:53:50;;;;;;;13.50;5.10;;;;;;;9.61;100.00;99218.81;5038881;28;20033;-89
2024/01/02 07:56:19;;;;;;;14.20;5.03;;;;;;;9.57;100.00;99215.91;5048368;28;20116;-89
2024/01/02 07:58:46;;;;;;;13.48;4.47;;;;;;;9.61;100.00;99224.16;5050835;28;20035;-87
2024/01/02 08:01:13;;;;;;;10.30;4.35;;;;;;;9.60;100.00;99217.22;5048628;28;20060;-85
2024/01/02 08:03:38;;;;;;;16.17;5.40;;;;;;;9.61;100.00;99224.94;5051600;28;20025;-83
2024/01/02 08:06:04;;;;;;;11.50;4.50;;;;;;;9.61;100.00;99216.13;5050316;28;20029;-83
2024/01/02 08:08:29;;;;;;;12.90;4.40;;;;;;;9.55;100.00;99218.88;5050973;28;20083;-83
2024/01/02 08:10:54;;;;;;;14.93;4.53;;;;;;;9.53;100.00;99213.00;5049636;28;20029;-83
2024/01/02 08:13:20;;;;;;;17.87;4.70;;;;;;;9.61;100.00;99221.47;5048925;28;20025;-85
2024/01/02 08:15:45;;;;;;;16.30;4.57;;;;;;;9.60;100.00;99226.00;5049574;28;20037;-84
2024/01/02 08:18:10;;;;;;;18.00;4.53;;;;;;;9.63;100.00;99230.78;5050290;28;20043;-84
2024/01/02 08:20:35;;;;;;;8.83;3.90;;;;;;;9.62;100.00;99226.53;5048941;28;20112;-84
2024/01/02 08:23:01;;;;;;;12.03;4.40;;;;;;;9.64;100.00;99235.06;5042840;28;20539;-84
2024/01/02 08:25:26;;;;;;;13.90;4.77;;;;;;;9.67;100.00;99241.72;5047596;28;20029;-84
2024/01/02 08:27:51;;;;;;;13.73;4.23;;;;;;;9.65;100.00;99242.00;5049026;28;20032;-84
2024/01/02 08:30:19;;;;;;;10.27;4.57;;;;;;;9.76;100.00;99247.22;5047953;28;20021;-84
2024/01/02 08:32:45;;;;;;;10.27;4.20;;;;;;;9.76;100.00;99245.31;5049634;28;20333;-84
2024/01/02 08:35:11;;;;;;;16.85;4.25;;;;;;;9.81;100.00;99253.25;5048169;28;20572;-85
2024/01/02 08:37:36;;;;;;;12.03;4.17;;;;;;;9.80;100.00;99238.31;5043976;28;20028;-84
2024/01/02 08:40:01;;;;;;;13.37;4.10;;;;;;;9.85;100.00;99246.25;5040214;28;20509;-83
2024/01/02 08:42:27;;;;;;;15.10;4.37;;;;;;;9.82;100.00;99236.13;5049199;28;20035;-82
2024/01/02 08:44:52;;;;;;;12.77;4.27;;;;;;;9.84;100.00;99238.50;5052154;28;20118;-84
2024/01/02 08:47:17;;;;;;;12.07;4.20;;;;;;;9.86;100.00;99236.34;5048958;28;20128;-84
2024/01/02 08:49:43;;;;;;;13.10;4.60;;;;;;;9.85;100.00;99235.56;5048764;28;20036;-83
2024/01/02 08:52:08;;;;;;;12.88;4.57;;;;;;;9.91;100.00;99227.44;5048838;28;20124;-84
2024/01/02 08:54:33;;;;;;;10.97;4.57;;;;;;;9.94;100.00;99233.00;5049519;28;20025;-84
2024/01/02 08:56:59;;;;;;;12.97;4.50;;;;;;;9.96;100.00;99228.13;5048973;28;20119;-83
2024/01/02 08:59:24;;;;;;;10.17;3.70;;;;;;;10.02;100.00;99234.22;5049339;28;20061;-84
2024/01/02 09:01:51;;;;;;;11.00;4.77;;;;;;;10.02;100.00;99223.50;5037985;28;20033;-84
2024/01/02 09:04:16;;;;;;;7.35;4.15;;;;;;;10.02;100.00;99215.47;5044101;28;20028;-84
2024/01/02 09:06:41;;;;;;;7.63;4.17;;;;;;;9.95;100.00;99215.84;5048157;28;20056;-83
2024/01/02 09:09:09;;;;;;;6.00;3.20;;;;;;;10.02;100.00;99212.81;5047889;28;20025;-83
2024/01/02 09:11:37;;;;;;;7.28;4.07;;;;;;;10.02;100.00;99209.31;5050111;28;20024;-83
2024/01/02 09:14:02;;;;;;;5.93;3.03;;;;;;;10.03;100.00;99201.03;5068391;28;20556;-84
2024/01/02 09:16:30;;;;;;;5.72;2.90;;;;;;;10.10;100.00;99209.44;5059343;28;20131;-83
2024/01/02 09:18:56;;;;;;;7.30;3.33;;;;;;;10.07;100.00;99188.63;5065886;28;20072;-83
2024/01/02 09:21:21;;;;;;;4.53;2.83;;;;;;;10.09;100.00;99197.16;5045582;28;20061;-83
2024/01/02 09:23:46;;;;;;;5.57;2.60;;;;;;;10.12;100.00;99195.78;5049059;28;20033;-84
2024/01/02 09:26:17;;;;;;;4.40;2.70;;;;;;;10.10;100.00;99197.97;5049465;28;20112;-83
2024/01/02 09:28:43;;;;;;;5.00;2.70;;;;;;;10.13;100.00;99192.03;5048861;28;20396;-84
2024/01/02 09:31:08;;;;;;;3.45;2.40;;;;;;;10.11;100.00;99180.81;5047372;28;20031;-83
2024/01/02 09:33:33;;;;;;;2.80;2.53;;;;;;;10.13;100.00;99171.38;5055555;28;20444;-83
2024/01/02 09:35:59;;;;;;;2.80;2.50;;;;;;;10.17;100.00;99176.94;5052560;28;20025;-83
2024/01/02 09:38:24;;;;;;;3.17;2.50;;;;;;;10.18;100.00;99167.03;5047089;28;20064;-84
2024/01/02 09:41:08;;;;;;;3.43;2.30;;;;;;;10.21;100.00;99182.50;5048437;28;20028;-84
2024/01/02 09:43:49;;;;;;;7.15;2.20;;;;;;;10.24;100.00;99180.03;5048131;28;20170;-83
2024/01/02 09:46:25;;;;;;;2.63;2.00;;;;;;;10.28;100.00;99188.25;5049328;28;20486;-84
2024/01/02 09:49:15;;;;;;;2.63;2.10;;;;;;;10.34;100.00;99192.44;5048288;28;20033;-84
2024/01/02 09:51:59;;;;;;;2.57;2.30;;;;;;;10.39;100.00;99188.91;5047518;28;20338;-84
2024/01/02 09:54:55;;;;;;;3.28;2.97;;;;;;;10.37;100.00;99181.16;5046138;28;20524;-84
2024/01/02 09:57:46;;;;;;;2.42;2.22;;;;;;;10.39;100.00;99189.72;5047996;28;20025;-84
2024/01/02 10:00:23;;;;;;;3.42;2.25;;;;;;;10.38;100.00;99180.09;5046076;28;20485;-83
2024/01/02 10:03:07;;;;;;;2.55;2.35;;;;;;;10.40;100.00;99177.09;5049877;28;20025;-83
2024/01/02 10:05:38;;;;;;;1.97;1.87;;;;;;;10.45;100.00;99183.16;5048437;28;20056;-83
2024/01/02 10:08:12;;;;;;;2.92;1.90;;;;;;;10.42;100.00;99180.28;5049739;28;20025;-84
2024/01/02 10:10:47;;;;;;;1.67;1.58;;;;;;;10.43;100.00;99182.66;5051566;28;20104;-84
2024/01/02 10:13:29;;;;;;;1.58;1.48;;;;;;;10.41;100.00;99182.16;5049741;28;20423;-84
2024/01/02 10:16:03;;;;;;;1.70;1.23;;;;;;;10.40;100.00;99179.78;5050583;28;20029;-83
2024/01/02 10:19:00;;;;;;;1.60;1.30;;;;;;;10.45;100.00;99172.44;5052025;28;20028;-84
2024/01/02 10:21:37;;;;;;;2.05;0.90;;;;;;;10.45;100.00;99177.78;5051949;28;20104;-84
2024/01/02 10:24:09;;;;;;;1.10;1.00;;;;;;;10.49;100.00;99169.16;5052388;28;20059;-84
2024/01/02 10:26:43;;;;;;;2.85;1.42;;;;;;;10.45;100.00;99171.66;5051129;28;20112;-84
2024/01/02 10:29:18;;;;;;;1.20;1.10;;;;;;;10.49;100.00;99169.16;5049578;28;20372;-84
2024/01/02 10:32:03;;;;;;;1.30;0.90;;;;;;;10.47;100.00;99155.28;5048175;28;20033;-83
2024/01/02 10:34:37;;;;;;;1.10;1.00;;;;;;;10.48;100.00;99163.03;5052611;28;20292;-84
2024/01/02 10:37:07;;;;;;;1.10;0.80;;;;;;;10.48;100.00;99155.00;5050524;28;20032;-83
2024/01/02 10:39:54;;;;;;;2.15;1.15;;;;;;;10.48;100.00;99146.16;5050611;28;20250;-84
2024/01/02 10:42:41;;;;;;;1.10;1.00;;;;;;;10.46;100.00;99151.81;5053347;28;20024;-84
2024/01/02 10:45:42;;;;;;;0.85;0.80;;;;;;;10.45;100.00;99145.66;5051694;28;20028;-83
2024/01/02 10:48:16;;;;;;;0.70;0.70;;;;;;;10.48;100.00;99146.16;5029818;28;20124;-84
2024/01/02 10:51:05;;;;;;;1.83;0.63;;;;;;;10.47;100.00;99136.53;5046483;28;20294;-84
2024/01/02 10:53:42;;;;;;;1.95;0.68;;;;;;;10.42;100.00;99140.09;5030767;28;20041;-84
2024/01/02 10:56:29;;;;;;;0.68;0.65;;;;;;;10.41;100.00;99138.53;5051900;28;20036;-84
2024/01/02 10:59:12;;;;;;;4.22;2.08;;;;;;;10.36;100.00;99126.00;5048128;28;20091;-84
2024/01/02 11:01:43;;;;;;;5.25;2.45;;;;;;;10.34;100.00;99117.47;5050837;28;20059;-85
2024/01/02 11:04:33;;;;;;;3.13;1.20;;;;;;;10.32;100.00;99130.38;5051663;28;20020;-84
2024/01/02 11:07:06;;;;;;;2.97;0.50;;;;;;;10.30;100.00;99138.69;5053602;28;20282;-85
2024/01/02 11:10:08;;;;;;;0.50;0.50;;;;;;;-148.15;100.00;61821.78;5048825;28;20033;-83
2024/01/02 11:13:05;;;;;;;1.10;0.50;;;;;;;-148.15;100.00;61821.78;5049646;28;20078;-84
2024/01/02 11:15:35;;;;;;;1.15;0.50;;;;;;;-148.15;100.00;61821.78;5051552;28;20461;-84
2024/01/02 11:18:03;;;;;;;0.98;0.60;;;;;;;-148.15;100.00;61821.78;5049373;28;20576;-84
2024/01/02 11:20:59;;;;;;;0.80;0.57;;;;;;;-148.15;100.00;61821.78;5051187;28;20036;-84
2024/01/02 11:23:29;;;;;;;2.63;0.60;;;;;;;-148.15;100.00;61821.78;5049964;28;20929;-83
2024/01/02 11:26:17;;;;;;;4.10;0.60;;;;;;;-148.15;100.00;61821.78;5050467;28;20071;-84
2024/01/02 11:28:46;;;;;;;2.45;0.90;;;;;;;-148.15;100.00;61821.78;5049582;28;20059;-85
2024/01/02 11:31:13;;;;;;;0.77;0.75;;;;;;;-148.15;100.00;61821.78;5051753;28;20024;-84